createdAt,value
2022-11-26T00:00:22.388Z,5.05
2022-11-26T00:01:20.516Z,5.50
2022-11-26T00:02:16.461Z,5.38
2022-11-26T00:02:58.358Z,5.65
2022-11-26T00:03:40.457Z,6.38
2022-11-26T00:04:22.287Z,6.20
2022-11-26T00:05:04.315Z,7.50
2022-11-26T00:05:49.506Z,5.57
2022-11-26T00:06:36.707Z,5.55
2022-11-26T00:07:22.364Z,5.90
2022-11-26T00:08:05.094Z,6.28
2022-11-26T00:08:46.793Z,5.60
2022-11-26T00:09:28.502Z,6.85
2022-11-26T00:10:21.545Z,6.68
2022-11-26T00:11:03.454Z,6.00
2022-11-26T00:11:45.084Z,10.43
2022-11-26T00:12:31.213Z,16.52
2022-11-26T00:13:18.889Z,14.93
2022-11-26T00:14:00.712Z,10.98
2022-11-26T00:14:42.473Z,11.85
2022-11-26T00:15:27.250Z,12.50
2022-11-26T00:16:12.609Z,10.20
2022-11-26T00:16:54.388Z,9.70
2022-11-26T00:17:36.102Z,6.93
2022-11-26T00:18:19.152Z,9.43
2022-11-26T00:19:00.873Z,8.23
2022-11-26T00:19:44.251Z,8.57
2022-11-26T00:20:31.039Z,10.07
2022-11-26T00:21:23.115Z,11.05
2022-11-26T00:22:05.264Z,10.63
2022-11-26T00:22:50.457Z,8.10
2022-11-26T00:23:32.349Z,8.25
2022-11-26T00:24:26.787Z,7.10
2022-11-26T00:25:21.386Z,8.30
2022-11-26T00:26:04.503Z,8.98
2022-11-26T00:26:46.138Z,7.50
2022-11-26T00:27:28.571Z,7.32
2022-11-26T00:28:28.690Z,5.75
2022-11-26T00:29:10.408Z,6.22
2022-11-26T00:29:52.284Z,7.78
2022-11-26T00:30:34.018Z,5.97
2022-11-26T00:31:16.578Z,5.95
2022-11-26T00:31:58.364Z,4.55
2022-11-26T00:32:40.123Z,6.13
2022-11-26T00:33:23.127Z,5.10
2022-11-26T00:34:05.003Z,5.57
2022-11-26T00:34:46.799Z,7.47
2022-11-26T00:35:28.496Z,6.15
2022-11-26T00:36:18.130Z,8.27
2022-11-26T00:36:59.913Z,6.30
2022-11-26T00:37:48.941Z,4.60
2022-11-26T00:38:31.166Z,4.70
2022-11-26T00:39:17.701Z,5.57
2022-11-26T00:39:59.449Z,6.43
2022-11-26T00:40:41.298Z,5.78
2022-11-26T00:41:25.192Z,5.95
2022-11-26T00:42:10.658Z,8.05
2022-11-26T00:42:57.401Z,6.40
2022-11-26T00:43:41.909Z,5.35
2022-11-26T00:44:25.412Z,5.00
2022-11-26T00:45:15.795Z,4.18
2022-11-26T00:45:57.502Z,7.65
2022-11-26T00:46:39.126Z,10.10
2022-11-26T00:47:20.763Z,10.38
2022-11-26T00:48:02.791Z,10.07
2022-11-26T00:48:44.685Z,4.82
2022-11-26T00:49:28.649Z,6.65
2022-11-26T00:50:18.495Z,6.50
2022-11-26T00:51:00.288Z,7.75
2022-11-26T00:51:42.690Z,8.93
2022-11-26T00:52:34.954Z,9.27
2022-11-26T00:53:20.921Z,9.18
2022-11-26T00:54:04.080Z,8.13
2022-11-26T00:54:45.836Z,6.28
2022-11-26T00:55:32.963Z,7.53
2022-11-26T00:56:18.216Z,7.90
2022-11-26T00:56:59.964Z,12.55
2022-11-26T00:57:41.910Z,10.20
2022-11-26T00:58:27.810Z,7.63
2022-11-26T00:59:19.311Z,8.90
2022-11-26T01:00:01.071Z,9.98
2022-11-26T01:00:42.738Z,7.57
2022-11-26T01:01:26.574Z,8.10
2022-11-26T01:02:09.578Z,7.63
2022-11-26T01:02:51.349Z,8.45
2022-11-26T01:03:33.027Z,7.45
2022-11-26T01:04:14.856Z,9.00
2022-11-26T01:04:56.539Z,10.20
2022-11-26T01:05:38.177Z,8.27
2022-11-26T01:06:31.408Z,8.38
2022-11-26T01:07:13.170Z,7.13
2022-11-26T01:07:59.875Z,8.93
2022-11-26T01:08:41.818Z,7.07
2022-11-26T01:09:23.458Z,11.30
2022-11-26T01:10:06.225Z,6.80
2022-11-26T01:10:47.927Z,7.72
2022-11-26T01:11:29.625Z,6.63
2022-11-26T01:12:15.078Z,8.55
2022-11-26T01:12:57.271Z,6.82
2022-11-26T01:13:39.050Z,7.93
2022-11-26T01:14:21.571Z,7.93
2022-11-26T01:15:03.632Z,9.75
2022-11-26T01:15:45.768Z,7.95
2022-11-26T01:16:34.762Z,8.07
2022-11-26T01:17:16.857Z,8.95
2022-11-26T01:17:58.501Z,6.45
2022-11-26T01:18:40.170Z,8.65
2022-11-26T01:19:22.044Z,8.98
2022-11-26T01:20:10.841Z,9.50
2022-11-26T01:20:52.551Z,7.70
2022-11-26T01:21:34.223Z,8.63
2022-11-26T01:22:23.637Z,8.27
2022-11-26T01:23:05.272Z,9.35
2022-11-26T01:23:47.549Z,7.13
2022-11-26T01:24:29.296Z,9.23
2022-11-26T01:25:11.006Z,8.88
2022-11-26T01:25:52.785Z,10.63
2022-11-26T01:26:40.731Z,12.20
2022-11-26T01:27:22.464Z,8.82
2022-11-26T01:28:04.692Z,11.48
2022-11-26T01:28:46.735Z,10.82
2022-11-26T01:29:28.332Z,10.63
2022-11-26T01:30:18.546Z,9.32
2022-11-26T01:31:00.167Z,8.43
2022-11-26T01:31:41.838Z,11.05
2022-11-26T01:32:29.209Z,10.95
2022-11-26T01:33:11.248Z,8.05
2022-11-26T01:33:53.908Z,8.10
2022-11-26T01:34:35.657Z,7.18
2022-11-26T01:35:19.270Z,5.72
2022-11-26T01:36:00.877Z,5.97
2022-11-26T01:36:42.972Z,5.25
2022-11-26T01:37:24.611Z,7.45
2022-11-26T01:38:06.335Z,5.93
2022-11-26T01:38:48.264Z,6.25
2022-11-26T01:39:29.891Z,5.10
2022-11-26T01:40:25.713Z,5.60
2022-11-26T01:41:20.661Z,7.22
2022-11-26T01:42:08.327Z,6.05
2022-11-26T01:42:53.462Z,5.40
2022-11-26T01:43:43.198Z,6.50
2022-11-26T01:44:28.267Z,6.40
2022-11-26T01:45:18.176Z,8.90
2022-11-26T01:45:59.843Z,6.60
2022-11-26T01:46:41.685Z,6.75
2022-11-26T01:47:29.989Z,5.15
2022-11-26T01:48:34.280Z,4.57
2022-11-26T01:49:38.369Z,5.78
2022-11-26T01:50:29.325Z,4.95
2022-11-26T01:51:12.475Z,6.40
2022-11-26T01:52:18.655Z,6.65
2022-11-26T01:53:11.924Z,5.85
2022-11-26T01:54:00.936Z,6.22
2022-11-26T01:54:43.916Z,4.60
2022-11-26T01:55:31.160Z,5.57
2022-11-26T01:56:27.744Z,7.53
2022-11-26T01:57:20.088Z,6.28
2022-11-26T01:58:03.604Z,5.80
2022-11-26T01:58:51.083Z,4.65
2022-11-26T01:59:37.110Z,7.82
2022-11-26T02:00:19.323Z,4.85
2022-11-26T02:01:01.070Z,8.30
2022-11-26T02:01:42.892Z,6.95
2022-11-26T02:02:27.302Z,4.40
2022-11-26T02:03:09.866Z,6.80
2022-11-26T02:04:17.478Z,6.82
2022-11-26T02:05:11.898Z,6.10
2022-11-26T02:06:04.204Z,3.97
2022-11-26T02:06:48.957Z,5.78
2022-11-26T02:07:30.691Z,5.43
2022-11-26T02:08:12.924Z,4.40
2022-11-26T02:08:55.577Z,4.22
2022-11-26T02:09:37.319Z,5.55
2022-11-26T02:10:19.286Z,4.68
2022-11-26T02:11:15.203Z,5.63
2022-11-26T02:11:57.149Z,5.75
2022-11-26T02:12:39.731Z,5.80
2022-11-26T02:13:21.860Z,5.95
2022-11-26T02:14:08.831Z,7.82
2022-11-26T02:14:50.598Z,6.30
2022-11-26T02:15:49.121Z,4.85
2022-11-26T02:16:30.768Z,8.07
2022-11-26T02:17:21.635Z,5.20
2022-11-26T02:18:07.861Z,7.30
2022-11-26T02:19:15.162Z,7.95
2022-11-26T02:20:15.724Z,4.43
2022-11-26T02:21:08.808Z,6.65
2022-11-26T02:22:03.772Z,5.35
2022-11-26T02:23:07.036Z,5.22
2022-11-26T02:23:51.237Z,4.80
2022-11-26T02:24:46.107Z,6.50
2022-11-26T02:25:51.437Z,7.07
2022-11-26T02:27:28.598Z,8.98
2022-11-26T02:28:31.408Z,8.35
2022-11-26T02:29:22.956Z,5.60
2022-11-26T02:30:07.421Z,7.97
2022-11-26T02:31:13.552Z,4.43
2022-11-26T02:32:07.591Z,6.28
2022-11-26T02:33:13.997Z,5.47
2022-11-26T02:34:14.401Z,6.10
2022-11-26T02:35:05.183Z,4.03
2022-11-26T02:35:56.222Z,3.95
2022-11-26T02:36:48.572Z,5.22
2022-11-26T02:37:37.065Z,5.28
2022-11-26T02:38:22.714Z,5.25
2022-11-26T02:39:15.124Z,5.57
2022-11-26T02:39:57.736Z,5.47
2022-11-26T02:40:39.388Z,4.22
2022-11-26T02:41:21.196Z,5.55
2022-11-26T02:42:04.356Z,4.28
2022-11-26T02:42:45.968Z,5.40
2022-11-26T02:43:28.353Z,5.45
2022-11-26T02:44:10.645Z,6.20
2022-11-26T02:44:55.153Z,7.60
2022-11-26T02:45:44.783Z,6.45
2022-11-26T02:46:26.516Z,7.72
2022-11-26T02:47:12.963Z,7.50
2022-11-26T02:47:57.951Z,7.93
2022-11-26T02:48:43.116Z,5.53
2022-11-26T02:49:26.734Z,5.53
2022-11-26T02:50:35.482Z,5.57
2022-11-26T02:51:23.011Z,3.92
2022-11-26T02:52:06.223Z,6.15
2022-11-26T02:52:50.577Z,6.18
2022-11-26T02:53:36.459Z,4.80
2022-11-26T02:54:20.175Z,6.63
2022-11-26T02:55:05.769Z,4.22
2022-11-26T02:55:52.744Z,5.72
2022-11-26T02:56:34.959Z,5.40
2022-11-26T02:57:20.441Z,5.13
2022-11-26T02:58:02.545Z,6.50
2022-11-26T02:58:44.855Z,5.78
2022-11-26T02:59:27.026Z,7.20
2022-11-26T03:00:09.262Z,6.10
2022-11-26T03:00:51.408Z,6.40
2022-11-26T03:01:41.239Z,6.70
2022-11-26T03:02:55.091Z,7.78
2022-11-26T03:03:43.235Z,11.25
2022-11-26T03:04:35.660Z,7.70
2022-11-26T03:05:18.528Z,7.63
2022-11-26T03:06:04.995Z,7.90
2022-11-26T03:06:47.115Z,6.20
2022-11-26T03:07:31.001Z,9.00
2022-11-26T03:08:12.684Z,5.95
2022-11-26T03:08:55.200Z,5.88
2022-11-26T03:09:52.637Z,7.35
2022-11-26T03:10:34.309Z,4.78
2022-11-26T03:11:15.925Z,8.15
2022-11-26T03:11:57.591Z,6.15
2022-11-26T03:12:39.515Z,9.88
2022-11-26T03:13:21.272Z,6.22
2022-11-26T03:14:03.109Z,5.50
2022-11-26T03:14:45.050Z,4.85
2022-11-26T03:15:27.481Z,5.05
2022-11-26T03:16:09.121Z,5.32
2022-11-26T03:16:50.821Z,6.03
2022-11-26T03:17:32.530Z,6.63
2022-11-26T03:18:14.401Z,6.90
2022-11-26T03:18:56.084Z,5.60
2022-11-26T03:19:37.738Z,7.25
2022-11-26T03:20:19.387Z,8.55
2022-11-26T03:21:01.153Z,5.50
2022-11-26T03:21:42.786Z,7.28
2022-11-26T03:22:24.376Z,7.55
2022-11-26T03:23:06.059Z,7.05
2022-11-26T03:23:47.693Z,8.32
2022-11-26T03:24:31.343Z,6.38
2022-11-26T03:25:13.278Z,8.82
2022-11-26T03:25:54.999Z,6.38
2022-11-26T03:26:36.701Z,6.18
2022-11-26T03:27:18.370Z,5.55
2022-11-26T03:28:00.040Z,5.53
2022-11-26T03:28:41.768Z,6.03
2022-11-26T03:29:23.505Z,6.70
2022-11-26T03:30:06.035Z,6.78
2022-11-26T03:30:50.536Z,6.65
2022-11-26T03:31:32.179Z,6.88
2022-11-26T03:32:13.873Z,6.15
2022-11-26T03:32:56.059Z,8.07
2022-11-26T03:33:37.717Z,5.68
2022-11-26T03:34:19.995Z,7.97
2022-11-26T03:35:01.904Z,6.53
2022-11-26T03:35:43.602Z,8.10
2022-11-26T03:36:25.219Z,8.00
2022-11-26T03:37:06.866Z,8.52
2022-11-26T03:37:48.657Z,6.53
2022-11-26T03:38:30.295Z,5.82
2022-11-26T03:39:12.033Z,5.63
2022-11-26T03:39:53.702Z,6.72
2022-11-26T03:40:35.467Z,5.30
2022-11-26T03:41:17.217Z,5.13
2022-11-26T03:41:58.855Z,9.90
2022-11-26T03:42:40.564Z,5.88
2022-11-26T03:43:22.226Z,5.97
2022-11-26T03:44:03.891Z,5.00
2022-11-26T03:44:45.567Z,8.40
2022-11-26T03:45:27.269Z,7.03
2022-11-26T03:46:09.081Z,5.85
2022-11-26T03:46:50.759Z,5.40
2022-11-26T03:47:32.428Z,5.95
2022-11-26T03:48:14.242Z,5.57
2022-11-26T03:48:55.916Z,4.47
2022-11-26T03:49:37.667Z,7.43
2022-11-26T03:50:19.450Z,5.95
2022-11-26T03:51:02.014Z,4.75
2022-11-26T03:51:43.664Z,6.55
2022-11-26T03:52:25.317Z,6.57
2022-11-26T03:53:07.037Z,5.38
2022-11-26T03:53:48.721Z,6.45
2022-11-26T03:54:30.457Z,5.95
2022-11-26T03:55:12.296Z,6.97
2022-11-26T03:55:54.000Z,5.35
2022-11-26T03:56:35.615Z,5.07
2022-11-26T03:57:17.486Z,7.40
2022-11-26T03:57:59.168Z,5.28
2022-11-26T03:58:40.792Z,7.50
2022-11-26T03:59:22.499Z,7.65
2022-11-26T04:00:06.686Z,6.65
2022-11-26T04:00:48.923Z,6.10
2022-11-26T04:01:30.970Z,6.50
2022-11-26T04:02:12.752Z,7.15
2022-11-26T04:02:54.483Z,5.45
2022-11-26T04:03:36.472Z,5.45
2022-11-26T04:04:18.111Z,6.30
2022-11-26T04:05:00.242Z,4.70
2022-11-26T04:05:41.933Z,5.60
2022-11-26T04:06:23.599Z,5.80
2022-11-26T04:07:05.303Z,5.90
2022-11-26T04:07:47.119Z,5.13
2022-11-26T04:08:28.831Z,5.53
2022-11-26T04:09:10.513Z,5.68
2022-11-26T04:09:52.139Z,6.03
2022-11-26T04:10:33.781Z,6.38
2022-11-26T04:11:15.463Z,6.13
2022-11-26T04:11:57.132Z,7.07
2022-11-26T04:12:38.826Z,8.82
2022-11-26T04:13:23.495Z,6.78
2022-11-26T04:14:05.142Z,4.53
2022-11-26T04:14:46.761Z,6.68
2022-11-26T04:15:28.375Z,5.47
2022-11-26T04:16:10.319Z,7.70
2022-11-26T04:16:52.111Z,3.83
2022-11-26T04:17:33.784Z,6.22
2022-11-26T04:18:16.067Z,5.43
2022-11-26T04:18:57.783Z,5.43
2022-11-26T04:19:39.486Z,7.85
2022-11-26T04:20:21.263Z,5.75
2022-11-26T04:21:06.476Z,6.60
2022-11-26T04:21:48.130Z,5.70
2022-11-26T04:22:29.753Z,5.70
2022-11-26T04:23:11.785Z,7.43
2022-11-26T04:23:53.450Z,6.60
2022-11-26T04:24:35.249Z,6.57
2022-11-26T04:25:17.034Z,6.05
2022-11-26T04:25:58.731Z,5.63
2022-11-26T04:26:40.417Z,6.28
2022-11-26T04:27:22.067Z,7.28
2022-11-26T04:28:03.764Z,5.78
2022-11-26T04:28:45.423Z,6.15
2022-11-26T04:29:27.090Z,6.70
2022-11-26T04:30:09.648Z,5.25
2022-11-26T04:30:51.240Z,4.40
2022-11-26T04:31:33.012Z,6.50
2022-11-26T04:32:14.723Z,6.35
2022-11-26T04:32:56.496Z,5.10
2022-11-26T04:33:38.207Z,4.88
2022-11-26T04:34:19.810Z,5.25
2022-11-26T04:35:01.553Z,5.85
2022-11-26T04:35:43.215Z,5.68
2022-11-26T04:36:25.251Z,6.45
2022-11-26T04:37:06.965Z,4.60
2022-11-26T04:37:48.745Z,5.75
2022-11-26T04:38:30.603Z,4.10
2022-11-26T04:39:12.594Z,6.07
2022-11-26T04:39:54.251Z,5.15
2022-11-26T04:40:35.967Z,4.10
2022-11-26T04:41:17.660Z,5.00
2022-11-26T04:41:59.348Z,9.18
2022-11-26T04:42:41.196Z,5.55
2022-11-26T04:43:23.104Z,5.07
2022-11-26T04:44:05.107Z,7.70
2022-11-26T04:44:46.771Z,5.32
2022-11-26T04:45:28.499Z,6.57
2022-11-26T04:46:10.340Z,6.20
2022-11-26T04:46:52.053Z,4.97
2022-11-26T04:47:33.774Z,4.63
2022-11-26T04:48:15.618Z,6.18
2022-11-26T04:48:57.296Z,5.93
2022-11-26T04:49:38.937Z,7.68
2022-11-26T04:50:20.716Z,5.57
2022-11-26T04:51:02.371Z,6.68
2022-11-26T04:51:44.027Z,6.78
2022-11-26T04:52:25.860Z,6.50
2022-11-26T04:53:07.567Z,5.57
2022-11-26T04:53:49.156Z,5.13
2022-11-26T04:54:30.802Z,4.82
2022-11-26T04:55:12.456Z,3.85
2022-11-26T04:55:54.097Z,4.97
2022-11-26T04:56:35.965Z,5.03
2022-11-26T04:57:17.570Z,5.07
2022-11-26T04:57:59.410Z,6.25
2022-11-26T04:58:41.077Z,4.72
2022-11-26T04:59:22.703Z,5.22
2022-11-26T05:00:06.331Z,5.25
2022-11-26T05:00:50.920Z,5.82
2022-11-26T05:01:32.890Z,4.38
2022-11-26T05:02:14.686Z,5.13
2022-11-26T05:02:56.408Z,5.05
2022-11-26T05:03:38.085Z,4.50
2022-11-26T05:04:20.258Z,6.43
2022-11-26T05:05:02.020Z,4.97
2022-11-26T05:05:43.730Z,6.88
2022-11-26T05:06:25.388Z,6.18
2022-11-26T05:07:07.276Z,7.97
2022-11-26T05:07:49.172Z,5.57
2022-11-26T05:08:30.906Z,8.05
2022-11-26T05:09:12.744Z,6.45
2022-11-26T05:09:54.437Z,5.88
2022-11-26T05:10:36.298Z,6.25
2022-11-26T05:11:18.036Z,5.60
2022-11-26T05:11:59.837Z,8.43
2022-11-26T05:12:41.549Z,5.20
2022-11-26T05:13:23.156Z,6.95
2022-11-26T05:14:04.868Z,5.22
2022-11-26T05:14:46.472Z,4.93
2022-11-26T05:15:28.236Z,6.60
2022-11-26T05:16:10.176Z,6.88
2022-11-26T05:16:51.997Z,9.52
2022-11-26T05:17:33.738Z,8.02
2022-11-26T05:18:15.410Z,6.32
2022-11-26T05:18:57.037Z,7.38
2022-11-26T05:19:38.715Z,6.93
2022-11-26T05:20:20.495Z,5.55
2022-11-26T05:21:05.300Z,5.70
2022-11-26T05:21:46.972Z,5.72
2022-11-26T05:22:28.647Z,5.55
2022-11-26T05:23:10.302Z,7.47
2022-11-26T05:23:51.960Z,6.85
2022-11-26T05:24:33.693Z,7.10
2022-11-26T05:25:15.391Z,5.80
2022-11-26T05:25:57.008Z,4.95
2022-11-26T05:26:38.636Z,5.65
2022-11-26T05:27:20.373Z,5.80
2022-11-26T05:28:02.118Z,6.80
2022-11-26T05:28:43.855Z,6.28
2022-11-26T05:29:25.974Z,6.03
2022-11-26T05:30:08.403Z,6.97
2022-11-26T05:30:50.100Z,7.18
2022-11-26T05:31:31.945Z,5.97
2022-11-26T05:32:13.700Z,4.57
2022-11-26T05:32:55.359Z,6.20
2022-11-26T05:33:37.225Z,6.25
2022-11-26T05:34:18.871Z,6.45
2022-11-26T05:35:00.619Z,6.57
2022-11-26T05:35:42.284Z,6.55
2022-11-26T05:36:24.069Z,7.25
2022-11-26T05:37:05.811Z,7.90
2022-11-26T05:37:47.520Z,5.97
2022-11-26T05:38:29.273Z,4.95
2022-11-26T05:39:10.926Z,5.38
2022-11-26T05:39:52.591Z,6.72
2022-11-26T05:40:34.347Z,6.15
2022-11-26T05:41:15.981Z,7.13
2022-11-26T05:41:57.597Z,6.82
2022-11-26T05:42:39.537Z,7.43
2022-11-26T05:43:21.593Z,6.82
2022-11-26T05:44:03.433Z,6.90
2022-11-26T05:44:45.152Z,5.22
2022-11-26T05:45:26.843Z,5.95
2022-11-26T05:46:09.385Z,4.82
2022-11-26T05:46:51.101Z,5.82
2022-11-26T05:47:32.851Z,4.60
2022-11-26T05:48:14.868Z,6.88
2022-11-26T05:48:56.630Z,5.97
2022-11-26T05:49:38.445Z,8.43
2022-11-26T05:50:20.169Z,5.90
2022-11-26T05:51:03.806Z,5.32
2022-11-26T05:51:45.444Z,6.47
2022-11-26T05:52:27.170Z,8.85
2022-11-26T05:53:08.822Z,4.55
2022-11-26T05:53:50.476Z,4.65
2022-11-26T05:54:32.216Z,4.43
2022-11-26T05:55:16.880Z,4.65
2022-11-26T05:55:58.492Z,6.25
2022-11-26T05:56:40.903Z,4.63
2022-11-26T05:57:22.559Z,5.10
2022-11-26T05:58:04.298Z,7.10
2022-11-26T05:58:45.964Z,5.97
2022-11-26T05:59:28.307Z,5.97
2022-11-26T06:00:11.029Z,7.10
2022-11-26T06:00:56.182Z,6.50
2022-11-26T06:01:38.012Z,4.53
2022-11-26T06:02:19.874Z,8.38
2022-11-26T06:03:01.662Z,7.20
2022-11-26T06:03:43.452Z,6.53
2022-11-26T06:04:25.248Z,5.65
2022-11-26T06:05:07.692Z,5.68
2022-11-26T06:05:49.339Z,4.32
2022-11-26T06:06:31.391Z,4.95
2022-11-26T06:07:13.110Z,5.60
2022-11-26T06:07:54.888Z,5.35
2022-11-26T06:08:36.913Z,6.13
2022-11-26T06:09:18.795Z,8.80
2022-11-26T06:10:00.590Z,5.90
2022-11-26T06:10:43.427Z,6.53
2022-11-26T06:11:25.172Z,7.50
2022-11-26T06:12:07.261Z,7.93
2022-11-26T06:12:48.966Z,9.15
2022-11-26T06:13:30.609Z,4.75
2022-11-26T06:14:12.334Z,7.25
2022-11-26T06:14:54.037Z,5.10
2022-11-26T06:15:35.722Z,5.47
2022-11-26T06:16:17.415Z,6.57
2022-11-26T06:16:59.187Z,6.80
2022-11-26T06:17:40.940Z,8.43
2022-11-26T06:18:22.762Z,9.93
2022-11-26T06:19:04.606Z,6.80
2022-11-26T06:19:46.370Z,7.63
2022-11-26T06:20:28.025Z,8.02
2022-11-26T06:21:10.349Z,8.25
2022-11-26T06:21:52.072Z,9.63
2022-11-26T06:22:41.331Z,7.35
2022-11-26T06:23:23.044Z,5.03
2022-11-26T06:24:05.089Z,5.45
2022-11-26T06:24:46.715Z,7.28
2022-11-26T06:25:28.419Z,7.88
2022-11-26T06:26:12.315Z,11.57
2022-11-26T06:26:53.968Z,7.20
2022-11-26T06:27:36.838Z,7.15
2022-11-26T06:28:18.627Z,6.75
2022-11-26T06:29:00.313Z,10.48
2022-11-26T06:29:41.967Z,8.57
2022-11-26T06:30:23.935Z,7.47
2022-11-26T06:31:06.247Z,8.73
2022-11-26T06:31:48.365Z,10.95
2022-11-26T06:32:31.416Z,9.70
2022-11-26T06:33:13.517Z,6.45
2022-11-26T06:33:58.031Z,8.02
2022-11-26T06:34:42.522Z,7.47
2022-11-26T06:35:25.558Z,7.32
2022-11-26T06:36:07.411Z,8.50
2022-11-26T06:36:49.285Z,15.23
2022-11-26T06:37:32.359Z,7.22
2022-11-26T06:38:14.013Z,7.72
2022-11-26T06:38:55.741Z,9.27
2022-11-26T06:39:37.368Z,6.30
2022-11-26T06:40:20.538Z,5.82
2022-11-26T06:41:07.281Z,9.13
2022-11-26T06:41:48.899Z,11.63
2022-11-26T06:42:30.675Z,7.63
2022-11-26T06:43:12.364Z,9.40
2022-11-26T06:43:54.063Z,8.10
2022-11-26T06:44:36.752Z,7.40
2022-11-26T06:45:20.030Z,7.93
2022-11-26T06:46:04.227Z,7.10
2022-11-26T06:46:45.910Z,6.75
2022-11-26T06:47:27.748Z,7.60
2022-11-26T06:48:09.406Z,8.98
2022-11-26T06:48:51.113Z,7.45
2022-11-26T06:49:32.913Z,8.07
2022-11-26T06:50:16.225Z,8.82
2022-11-26T06:51:15.127Z,6.57
2022-11-26T06:51:56.760Z,7.38
2022-11-26T06:52:38.577Z,8.75
2022-11-26T06:53:20.399Z,8.32
2022-11-26T06:54:02.391Z,9.88
2022-11-26T06:54:44.048Z,7.72
2022-11-26T06:55:25.659Z,9.10
2022-11-26T06:56:16.564Z,11.60
2022-11-26T06:57:00.327Z,10.70
2022-11-26T06:57:41.967Z,9.52
2022-11-26T06:58:24.866Z,9.27
2022-11-26T06:59:06.547Z,8.88
2022-11-26T06:59:48.222Z,8.75
2022-11-26T07:00:29.901Z,9.02
2022-11-26T07:01:30.853Z,9.57
2022-11-26T07:02:12.644Z,22.27
2022-11-26T07:02:54.417Z,30.63
2022-11-26T07:03:36.453Z,13.63
2022-11-26T07:04:18.221Z,9.30
2022-11-26T07:04:59.863Z,9.82
2022-11-26T07:05:41.529Z,7.47
2022-11-26T07:06:28.535Z,7.47
2022-11-26T07:07:10.310Z,8.02
2022-11-26T07:07:52.033Z,7.70
2022-11-26T07:08:33.780Z,6.55
2022-11-26T07:09:15.638Z,9.38
2022-11-26T07:09:57.268Z,7.20
2022-11-26T07:10:39.056Z,11.57
2022-11-26T07:11:21.008Z,7.72
2022-11-26T07:12:02.797Z,8.52
2022-11-26T07:12:44.551Z,8.70
2022-11-26T07:13:26.363Z,7.97
2022-11-26T07:14:08.593Z,6.85
2022-11-26T07:14:50.319Z,7.03
2022-11-26T07:15:32.139Z,6.22
2022-11-26T07:16:13.899Z,4.90
2022-11-26T07:16:55.628Z,6.55
2022-11-26T07:17:37.305Z,7.10
2022-11-26T07:18:19.036Z,7.63
2022-11-26T07:19:02.982Z,6.13
2022-11-26T07:19:44.938Z,7.88
2022-11-26T07:20:26.851Z,4.65
2022-11-26T07:21:11.750Z,4.75
2022-11-26T07:21:54.156Z,5.43
2022-11-26T07:22:35.912Z,4.20
2022-11-26T07:23:17.592Z,4.65
2022-11-26T07:23:59.866Z,4.43
2022-11-26T07:24:41.931Z,4.28
2022-11-26T07:25:23.685Z,4.20
2022-11-26T07:26:06.921Z,4.20
2022-11-26T07:26:48.779Z,4.32
2022-11-26T07:27:30.549Z,4.03
2022-11-26T07:28:12.638Z,4.53
2022-11-26T07:28:54.360Z,5.28
2022-11-26T07:29:36.052Z,5.68
2022-11-26T07:30:18.018Z,6.10
2022-11-26T07:31:01.418Z,6.70
2022-11-26T07:31:43.890Z,6.18
2022-11-26T07:32:26.677Z,6.97
2022-11-26T07:33:08.429Z,6.50
2022-11-26T07:33:50.896Z,8.43
2022-11-26T07:34:32.710Z,13.70
2022-11-26T07:35:14.402Z,10.70
2022-11-26T07:36:03.958Z,7.25
2022-11-26T07:36:45.699Z,6.97
2022-11-26T07:37:27.483Z,7.70
2022-11-26T07:38:09.218Z,8.13
2022-11-26T07:38:54.055Z,7.82
2022-11-26T07:39:35.757Z,8.40
2022-11-26T07:40:17.479Z,9.52
2022-11-26T07:41:07.567Z,7.90
2022-11-26T07:41:49.443Z,9.85
2022-11-26T07:42:32.344Z,7.82
2022-11-26T07:43:14.011Z,7.80
2022-11-26T07:43:56.029Z,12.65
2022-11-26T07:44:37.957Z,10.95
2022-11-26T07:45:19.809Z,9.38
2022-11-26T07:46:03.045Z,7.80
2022-11-26T07:46:44.855Z,7.65
2022-11-26T07:47:26.692Z,7.68
2022-11-26T07:48:11.510Z,9.00
2022-11-26T07:48:57.534Z,34.50
2022-11-26T07:49:39.225Z,17.95
2022-11-26T07:50:20.960Z,12.40
2022-11-26T07:51:03.200Z,8.60
2022-11-26T07:51:45.031Z,28.58
2022-11-26T07:52:26.797Z,22.80
2022-11-26T07:53:08.560Z,10.07
2022-11-26T07:53:50.759Z,11.32
2022-11-26T07:54:32.657Z,51.25
2022-11-26T07:55:14.428Z,13.70
2022-11-26T07:55:56.308Z,7.15
2022-11-26T07:56:38.101Z,5.30
2022-11-26T07:57:22.222Z,9.13
2022-11-26T07:58:04.014Z,22.02
2022-11-26T07:58:46.368Z,7.32
2022-11-26T07:59:28.218Z,17.70
2022-11-26T08:00:10.465Z,29.35
2022-11-26T08:00:55.451Z,14.50
2022-11-26T08:01:37.480Z,13.40
2022-11-26T08:02:19.490Z,7.30
2022-11-26T08:03:01.281Z,6.80
2022-11-26T08:03:46.533Z,5.70
2022-11-26T08:04:28.269Z,6.85
2022-11-26T08:05:10.073Z,6.38
2022-11-26T08:05:51.782Z,13.98
2022-11-26T08:06:34.074Z,8.38
2022-11-26T08:07:23.056Z,7.57
2022-11-26T08:08:07.713Z,26.55
2022-11-26T08:08:50.055Z,11.98
2022-11-26T08:09:31.743Z,13.82
2022-11-26T08:10:13.589Z,20.77
2022-11-26T08:10:55.345Z,12.48
2022-11-26T08:11:37.315Z,23.88
2022-11-26T08:12:19.024Z,56.25
2022-11-26T08:13:00.748Z,31.25
2022-11-26T08:13:43.581Z,62.92
2022-11-26T08:14:25.326Z,32.40
2022-11-26T08:15:07.639Z,22.90
2022-11-26T08:15:49.789Z,38.83
2022-11-26T08:16:32.151Z,26.92
2022-11-26T08:17:13.850Z,8.50
2022-11-26T08:17:56.293Z,26.42
2022-11-26T08:18:38.206Z,18.08
2022-11-26T08:19:20.013Z,13.55
2022-11-26T08:20:01.762Z,19.25
2022-11-26T08:20:43.465Z,16.58
2022-11-26T08:21:25.955Z,13.20
2022-11-26T08:22:07.739Z,25.15
2022-11-26T08:22:49.497Z,21.75
2022-11-26T08:23:32.429Z,30.75
2022-11-26T08:24:17.732Z,30.45
2022-11-26T08:24:59.358Z,22.02
2022-11-26T08:25:59.341Z,14.45
2022-11-26T08:26:44.605Z,17.83
2022-11-26T08:27:26.504Z,27.83
2022-11-26T08:28:08.156Z,22.63
2022-11-26T08:28:49.861Z,30.23
2022-11-26T08:29:31.632Z,23.60
2022-11-26T08:30:14.394Z,28.42
2022-11-26T08:31:07.321Z,28.33
2022-11-26T08:31:49.173Z,31.88
2022-11-26T08:32:31.023Z,29.35
2022-11-26T08:33:13.554Z,35.40
2022-11-26T08:34:02.578Z,26.92
2022-11-26T08:34:44.217Z,38.95
2022-11-26T08:35:44.417Z,76.60
2022-11-26T08:36:29.113Z,63.40
2022-11-26T08:37:10.759Z,48.92
2022-11-26T08:37:52.487Z,47.65
2022-11-26T08:38:34.373Z,33.17
2022-11-26T08:39:17.957Z,51.13
2022-11-26T08:39:59.788Z,67.78
2022-11-26T08:40:41.451Z,32.15
2022-11-26T08:41:23.831Z,42.85
2022-11-26T08:42:05.585Z,15.90
2022-11-26T08:42:47.341Z,26.60
2022-11-26T08:43:51.405Z,70.43
2022-11-26T08:44:30.886Z,67.05
2022-11-26T08:45:24.940Z,34.22
2022-11-26T08:46:07.476Z,69.32
2022-11-26T08:46:49.423Z,18.73
2022-11-26T08:47:31.124Z,35.55
2022-11-26T08:48:13.387Z,72.20
2022-11-26T08:48:56.492Z,17.67
2022-11-26T08:49:38.200Z,21.30
2022-11-26T08:50:20.775Z,16.95
2022-11-26T08:51:05.665Z,14.85
2022-11-26T08:51:47.388Z,22.58
2022-11-26T08:52:29.097Z,16.30
2022-11-26T08:53:10.838Z,17.67
2022-11-26T08:53:52.886Z,30.10
2022-11-26T08:54:34.645Z,16.85
2022-11-26T08:55:16.400Z,13.65
2022-11-26T08:56:06.295Z,16.25
2022-11-26T08:56:48.010Z,16.77
2022-11-26T08:57:29.895Z,18.27
2022-11-26T08:58:11.644Z,17.95
2022-11-26T08:58:53.389Z,16.95
2022-11-26T08:59:35.179Z,20.85
2022-11-26T09:00:17.593Z,21.35
2022-11-26T09:00:59.880Z,19.60
2022-11-26T09:01:42.289Z,20.65
2022-11-26T09:02:24.302Z,21.23
2022-11-26T09:03:05.961Z,26.70
2022-11-26T09:03:51.893Z,16.27
2022-11-26T09:04:33.592Z,24.67
2022-11-26T09:05:15.460Z,19.38
2022-11-26T09:06:01.200Z,27.25
2022-11-26T09:06:42.988Z,31.50
2022-11-26T09:07:24.840Z,23.25
2022-11-26T09:08:06.774Z,14.20
2022-11-26T09:09:07.840Z,21.45
2022-11-26T09:09:49.577Z,34.47
2022-11-26T09:10:31.291Z,17.00
2022-11-26T09:11:12.983Z,16.27
2022-11-26T09:11:59.917Z,15.98
2022-11-26T09:12:42.427Z,20.20
2022-11-26T09:13:24.140Z,17.73
2022-11-26T09:14:06.452Z,15.15
2022-11-26T09:14:48.149Z,15.15
2022-11-26T09:15:29.835Z,17.10
2022-11-26T09:16:11.696Z,22.50
2022-11-26T09:16:58.024Z,24.33
2022-11-26T09:17:39.832Z,21.27
2022-11-26T09:18:21.510Z,28.33
2022-11-26T09:19:06.177Z,27.40
2022-11-26T09:19:47.850Z,30.65
2022-11-26T09:20:29.992Z,29.80
2022-11-26T09:21:11.636Z,27.70
2022-11-26T09:21:53.505Z,24.27
2022-11-26T09:22:35.757Z,23.88
2022-11-26T09:23:17.372Z,22.83
2022-11-26T09:23:59.090Z,22.92
2022-11-26T09:24:41.322Z,19.33
2022-11-26T09:25:23.033Z,20.83
2022-11-26T09:26:04.795Z,17.27
2022-11-26T09:26:48.325Z,18.05
2022-11-26T09:27:30.052Z,16.63
2022-11-26T09:28:11.677Z,20.17
2022-11-26T09:28:53.558Z,22.05
2022-11-26T09:29:35.289Z,20.73
2022-11-26T09:30:17.138Z,22.38
2022-11-26T09:30:59.961Z,27.15
2022-11-26T09:32:15.368Z,28.13
2022-11-26T09:32:48.508Z,36.13
2022-11-26T09:33:30.441Z,35.35
2022-11-26T09:34:12.579Z,30.45
2022-11-26T09:34:54.394Z,48.53
2022-11-26T09:35:36.164Z,33.13
2022-11-26T09:36:18.897Z,25.05
2022-11-26T09:37:00.665Z,21.85